createdAt,value
2018-03-14T00:00:00.806Z,7.40
2018-03-14T00:02:28.407Z,7.43
2018-03-14T00:04:55.955Z,8.13
2018-03-14T00:07:23.526Z,8.10
2018-03-14T00:09:51.078Z,13.93
2018-03-14T00:12:18.642Z,8.30
2018-03-14T00:14:46.164Z,8.33
2018-03-14T00:17:13.714Z,7.73
2018-03-14T00:19:41.270Z,8.23
2018-03-14T00:22:08.800Z,8.20
2018-03-14T00:24:36.374Z,7.70
2018-03-14T00:27:04.683Z,8.20
2018-03-14T00:29:32.250Z,8.50
2018-03-14T00:31:59.797Z,9.83
2018-03-14T00:34:27.366Z,9.53
2018-03-14T00:36:54.902Z,8.10
2018-03-14T00:39:22.600Z,6.87
2018-03-14T00:41:50.168Z,11.13
2018-03-14T00:44:17.702Z,6.97
2018-03-14T00:46:45.320Z,7.63
2018-03-14T00:49:13.618Z,6.90
2018-03-14T00:51:41.185Z,7.67
2018-03-14T00:54:08.979Z,7.27
2018-03-14T00:56:36.546Z,6.70
2018-03-14T00:59:04.085Z,7.23
2018-03-14T01:01:31.617Z,7.00
2018-03-14T01:03:59.190Z,7.47
2018-03-14T01:06:26.722Z,7.73
2018-03-14T01:08:54.287Z,8.00
2018-03-14T01:11:21.826Z,7.30
2018-03-14T01:13:50.179Z,8.37
2018-03-14T01:16:17.722Z,9.37
2018-03-14T01:18:45.284Z,9.20
2018-03-14T01:21:12.814Z,8.03
2018-03-14T01:23:40.341Z,7.60
2018-03-14T01:26:08.667Z,7.13
2018-03-14T01:28:37.950Z,9.00
2018-03-14T01:31:05.568Z,6.90
2018-03-14T01:33:33.122Z,8.10
2018-03-14T01:36:00.693Z,6.33
2018-03-14T01:38:28.230Z,14.03
2018-03-14T01:40:55.797Z,7.50
2018-03-14T01:43:23.351Z,9.00
2018-03-14T01:45:50.902Z,6.90
2018-03-14T01:48:18.461Z,6.43
2018-03-14T01:50:46.029Z,9.33
2018-03-14T01:53:25.518Z,15.67
2018-03-14T01:55:53.824Z,17.63
2018-03-14T01:58:21.438Z,9.77
2018-03-14T02:00:48.986Z,7.57
2018-03-14T02:03:16.566Z,10.20
2018-03-14T02:05:44.107Z,8.53
2018-03-14T02:08:12.415Z,7.50
2018-03-14T02:10:40.001Z,9.93
2018-03-14T02:13:08.688Z,17.03
2018-03-14T02:15:36.262Z,15.30
2018-03-14T02:18:03.806Z,6.97
2018-03-14T02:20:31.376Z,7.40
2018-03-14T02:22:58.908Z,8.30
2018-03-14T02:25:26.464Z,7.73
2018-03-14T02:27:53.997Z,8.87
2018-03-14T02:30:21.545Z,9.63
2018-03-14T02:32:49.882Z,9.43
2018-03-14T02:35:17.439Z,10.30
2018-03-14T02:37:46.959Z,8.30
2018-03-14T02:40:14.503Z,9.67
2018-03-14T02:42:42.055Z,9.60
2018-03-14T02:45:09.602Z,9.50
2018-03-14T02:47:37.155Z,10.00
2018-03-14T02:50:05.594Z,9.50
2018-03-14T02:52:33.890Z,9.00
2018-03-14T02:55:01.466Z,9.83
2018-03-14T02:57:30.892Z,9.70
2018-03-14T02:59:58.436Z,9.83
2018-03-14T03:02:25.970Z,9.07
2018-03-14T03:04:54.288Z,9.00
2018-03-14T03:07:21.830Z,8.50
2018-03-14T03:09:49.373Z,8.63
2018-03-14T03:12:17.670Z,10.00
2018-03-14T03:14:45.194Z,10.30
2018-03-14T03:17:12.746Z,9.70
2018-03-14T03:19:40.258Z,9.47
2018-03-14T03:22:07.805Z,9.20
2018-03-14T03:24:35.338Z,9.17
2018-03-14T03:27:02.889Z,10.13
2018-03-14T03:29:30.409Z,9.50
2018-03-14T03:31:57.954Z,9.87
2018-03-14T03:34:25.485Z,9.50
2018-03-14T03:36:53.006Z,8.33
2018-03-14T03:39:20.556Z,10.10
2018-03-14T03:41:48.082Z,9.33
2018-03-14T03:44:15.638Z,10.10
2018-03-14T03:46:43.157Z,9.50
2018-03-14T03:49:10.711Z,8.60
2018-03-14T03:51:38.233Z,8.27
2018-03-14T03:54:05.786Z,8.70
2018-03-14T03:56:33.305Z,9.47
2018-03-14T03:59:01.647Z,9.03
2018-03-14T04:01:29.194Z,8.57
2018-03-14T04:03:56.714Z,8.60
2018-03-14T04:06:25.299Z,9.20
2018-03-14T04:08:52.814Z,9.53
2018-03-14T04:11:20.365Z,8.83
2018-03-14T04:13:47.891Z,9.50
2018-03-14T04:16:15.474Z,16.77
2018-03-14T04:18:42.994Z,8.97
2018-03-14T04:21:10.505Z,7.33
2018-03-14T04:23:38.055Z,8.47
2018-03-14T04:26:05.566Z,7.47
2018-03-14T04:28:33.127Z,7.57
2018-03-14T04:31:01.612Z,8.53
2018-03-14T04:33:29.163Z,8.10
2018-03-14T04:35:56.686Z,7.73
2018-03-14T04:38:24.250Z,7.80
2018-03-14T04:40:51.766Z,7.40
2018-03-14T04:43:19.282Z,7.23
2018-03-14T04:45:48.774Z,7.10
2018-03-14T04:48:16.326Z,6.60
2018-03-14T04:50:46.583Z,7.00
2018-03-14T04:53:15.076Z,6.97
2018-03-14T04:55:42.624Z,7.40
2018-03-14T04:58:11.111Z,6.50
2018-03-14T05:00:38.662Z,6.80
2018-03-14T05:03:06.223Z,6.23
2018-03-14T05:05:33.746Z,5.90
2018-03-14T05:08:01.309Z,6.40
2018-03-14T05:10:30.530Z,6.67
2018-03-14T05:12:58.067Z,5.80
2018-03-14T05:15:26.363Z,6.43
2018-03-14T05:17:53.905Z,6.43
2018-03-14T05:20:21.421Z,6.07
2018-03-14T05:22:48.976Z,5.73
2018-03-14T05:25:16.500Z,7.03
2018-03-14T05:27:44.967Z,6.00
2018-03-14T05:30:13.276Z,6.60
2018-03-14T05:32:40.790Z,7.20
2018-03-14T05:35:08.383Z,6.50
2018-03-14T05:37:36.654Z,7.30
2018-03-14T05:40:04.223Z,6.80
2018-03-14T05:42:31.769Z,9.17
2018-03-14T05:44:59.318Z,8.93
2018-03-14T05:52:56.353Z,8.63
2018-03-14T05:55:23.907Z,7.07
2018-03-14T05:57:52.378Z,7.40
2018-03-14T06:00:19.914Z,7.23
2018-03-14T06:02:47.472Z,6.63
2018-03-14T06:05:15.057Z,7.13
2018-03-14T06:07:42.602Z,7.43
2018-03-14T06:10:10.134Z,7.20
2018-03-14T06:12:38.450Z,11.03
2018-03-14T06:15:05.981Z,11.47
2018-03-14T06:17:33.544Z,16.80
2018-03-14T06:20:01.069Z,16.77
2018-03-14T06:22:30.831Z,11.97
2018-03-14T06:24:58.407Z,6.77
2018-03-14T06:27:26.902Z,9.20
2018-03-14T06:29:56.410Z,7.53
2018-03-14T06:32:23.956Z,11.60
2018-03-14T06:34:51.503Z,16.23
2018-03-14T06:37:19.029Z,12.17
2018-03-14T06:39:46.574Z,12.20
2018-03-14T06:42:14.863Z,11.57
2018-03-14T06:44:42.407Z,11.10
2018-03-14T06:47:09.970Z,11.90
2018-03-14T06:49:38.264Z,11.63
2018-03-14T06:52:05.823Z,12.20
2018-03-14T06:54:34.295Z,12.40
2018-03-14T06:57:02.854Z,16.77
2018-03-14T06:59:42.255Z,15.70
2018-03-14T07:02:21.658Z,15.13
2018-03-14T07:05:00.850Z,13.73
2018-03-14T07:07:29.172Z,12.70
2018-03-14T07:09:57.670Z,13.50
2018-03-14T07:12:25.226Z,12.40
2018-03-14T07:14:52.761Z,12.17
2018-03-14T07:17:21.274Z,12.77
2018-03-14T07:19:48.908Z,14.40
2018-03-14T07:22:16.475Z,12.97
2018-03-14T07:24:44.983Z,11.30
2018-03-14T07:27:12.518Z,13.17
2018-03-14T07:29:40.076Z,12.60
2018-03-14T07:32:07.606Z,13.27
2018-03-14T07:34:35.190Z,13.40
2018-03-14T07:37:02.722Z,14.20
2018-03-14T07:39:31.218Z,13.23
2018-03-14T07:41:58.778Z,12.60
2018-03-14T07:44:26.350Z,13.57
2018-03-14T07:46:53.914Z,14.00
2018-03-14T07:49:21.456Z,12.50
2018-03-14T07:51:49.015Z,12.80
2018-03-14T07:54:16.538Z,12.10
2018-03-14T07:56:44.105Z,12.57
2018-03-14T07:59:11.704Z,10.57
2018-03-14T08:01:39.234Z,12.53
2018-03-14T08:04:06.799Z,10.30
2018-03-14T08:06:34.336Z,12.23
2018-03-14T08:09:02.693Z,9.87
2018-03-14T08:11:30.210Z,9.90
2018-03-14T08:13:57.835Z,10.27
2018-03-14T08:16:25.533Z,10.70
2018-03-14T08:18:53.079Z,9.60
2018-03-14T08:21:20.601Z,9.03
2018-03-14T08:23:49.862Z,8.60
2018-03-14T08:26:17.413Z,14.60
2018-03-14T08:28:44.947Z,9.17
2018-03-14T08:31:12.505Z,9.00
2018-03-14T08:33:41.766Z,8.40
2018-03-14T08:36:09.327Z,8.00
2018-03-14T08:38:38.600Z,8.47
2018-03-14T08:41:06.161Z,9.97
2018-03-14T08:43:33.685Z,7.50
2018-03-14T08:46:01.207Z,8.40
2018-03-14T08:48:28.768Z,7.90
2018-03-14T08:50:56.302Z,7.53
2018-03-14T08:53:23.848Z,7.33
2018-03-14T08:55:51.362Z,7.20
2018-03-14T08:58:18.907Z,5.50
2018-03-14T09:00:46.435Z,7.17
2018-03-14T09:03:13.978Z,5.70
2018-03-14T09:05:41.494Z,5.80
2018-03-14T09:08:09.015Z,5.80
2018-03-14T09:10:36.577Z,6.10
2018-03-14T09:13:04.090Z,6.33
2018-03-14T09:15:31.639Z,5.20
2018-03-14T09:17:59.168Z,5.10
2018-03-14T09:20:26.722Z,4.20
2018-03-14T09:22:54.258Z,4.90
2018-03-14T09:25:21.805Z,5.47
2018-03-14T09:27:50.290Z,4.60
2018-03-14T09:30:17.819Z,4.77
2018-03-14T09:32:45.367Z,4.63
2018-03-14T09:35:13.655Z,4.60
2018-03-14T09:37:41.202Z,4.10
2018-03-14T09:40:09.669Z,4.20
2018-03-14T09:42:37.220Z,5.20
2018-03-14T09:45:05.669Z,4.27
2018-03-14T09:47:33.230Z,5.33
2018-03-14T09:50:01.711Z,4.97
2018-03-14T09:52:29.235Z,4.67
2018-03-14T09:54:56.801Z,4.70
2018-03-14T09:57:24.342Z,5.20
2018-03-14T09:59:51.888Z,4.70
2018-03-14T10:02:20.184Z,4.57
2018-03-14T10:04:48.501Z,4.57
2018-03-14T10:07:16.022Z,4.47
2018-03-14T10:09:43.575Z,3.77
2018-03-14T10:12:11.880Z,4.17
2018-03-14T10:14:39.409Z,3.90
2018-03-14T10:17:06.970Z,4.47
2018-03-14T10:19:34.495Z,3.80
2018-03-14T10:22:02.815Z,4.30
2018-03-14T10:24:30.342Z,3.37
2018-03-14T10:26:58.659Z,3.37
2018-03-14T10:29:26.178Z,4.00
2018-03-14T10:31:53.742Z,4.30
2018-03-14T10:34:22.106Z,3.57
2018-03-14T10:36:49.655Z,4.17
2018-03-14T10:39:17.198Z,4.50
2018-03-14T10:41:44.732Z,3.73
2018-03-14T10:44:12.276Z,3.70
2018-03-14T10:46:40.569Z,3.57
2018-03-14T10:49:08.224Z,3.77
2018-03-14T10:51:35.748Z,4.53
2018-03-14T10:54:03.302Z,3.40
2018-03-14T10:56:30.838Z,4.00
2018-03-14T10:58:58.357Z,3.10
2018-03-14T11:01:25.906Z,3.87
2018-03-14T11:03:54.190Z,3.50
2018-03-14T11:06:21.738Z,3.60
2018-03-14T11:08:50.118Z,3.57
2018-03-14T11:11:17.699Z,3.20
2018-03-14T11:13:45.210Z,3.40
2018-03-14T11:16:13.535Z,3.30
2018-03-14T11:18:41.074Z,3.17
2018-03-14T11:21:08.623Z,3.70
2018-03-14T11:23:36.946Z,3.50
2018-03-14T11:26:04.481Z,3.20
2018-03-14T11:28:32.029Z,3.27
2018-03-14T11:30:59.561Z,3.83
2018-03-14T11:33:28.846Z,3.77
2018-03-14T11:35:56.423Z,3.10
2018-03-14T11:38:23.983Z,3.90
2018-03-14T11:40:52.363Z,3.60
2018-03-14T11:43:20.666Z,3.97
2018-03-14T11:45:48.226Z,4.23
2018-03-14T11:48:15.748Z,4.93
2018-03-14T11:50:44.290Z,4.20
2018-03-14T11:53:11.826Z,3.80
2018-03-14T11:55:39.404Z,3.67
2018-03-14T11:58:07.906Z,4.50
2018-03-14T12:00:35.457Z,4.50
2018-03-14T12:03:02.981Z,4.10
2018-03-14T12:05:30.523Z,4.00
2018-03-14T12:07:58.073Z,3.93
2018-03-14T12:10:25.598Z,4.27
2018-03-14T12:12:53.150Z,3.90
2018-03-14T12:15:20.671Z,4.10
2018-03-14T12:17:48.252Z,3.83
2018-03-14T12:20:15.830Z,3.40
2018-03-14T12:22:43.386Z,3.23
2018-03-14T12:25:11.919Z,3.33
2018-03-14T12:27:42.175Z,3.30
2018-03-14T12:30:09.707Z,3.03
2018-03-14T12:32:37.991Z,2.10
2018-03-14T12:35:06.108Z,2.70
2018-03-14T12:37:33.675Z,2.57
2018-03-14T12:40:01.257Z,2.83
2018-03-14T12:42:28.780Z,2.10
2018-03-14T12:44:56.341Z,2.23
2018-03-14T12:47:23.867Z,2.03
2018-03-14T12:49:52.374Z,2.10
2018-03-14T12:52:20.110Z,2.40
2018-03-14T12:54:47.634Z,2.20
2018-03-14T12:57:15.216Z,2.33
2018-03-14T12:59:43.531Z,2.40
2018-03-14T13:02:11.138Z,2.20
2018-03-14T13:04:38.678Z,1.87
2018-03-14T13:07:06.242Z,2.13
2018-03-14T13:09:33.980Z,2.20
2018-03-14T13:12:01.523Z,2.40
2018-03-14T13:14:29.050Z,2.30
2018-03-14T13:16:57.624Z,3.30
2018-03-14T13:19:25.138Z,2.53
2018-03-14T13:21:52.659Z,1.90
2018-03-14T13:24:20.206Z,2.00
2018-03-14T13:26:47.734Z,1.90
2018-03-14T13:29:15.282Z,2.13
2018-03-14T13:31:42.798Z,1.80
2018-03-14T13:34:10.371Z,1.80
2018-03-14T13:36:37.894Z,1.70
2018-03-14T13:39:06.189Z,1.27
2018-03-14T13:41:33.751Z,1.30
2018-03-14T13:44:01.270Z,1.43
2018-03-14T13:46:28.912Z,1.70
2018-03-14T13:48:56.510Z,1.67
2018-03-14T13:51:24.086Z,1.20
2018-03-14T13:53:51.622Z,1.50
2018-03-14T13:56:19.945Z,1.80
2018-03-14T13:58:47.479Z,1.20
2018-03-14T14:01:15.959Z,2.60
2018-03-14T14:03:43.512Z,1.47
2018-03-14T14:06:11.062Z,1.50
2018-03-14T14:08:40.566Z,1.60
2018-03-14T14:11:08.861Z,1.50
2018-03-14T14:13:36.427Z,1.80
2018-03-14T14:16:03.962Z,1.90
2018-03-14T14:18:32.281Z,1.60
2018-03-14T14:21:00.758Z,1.57
2018-03-14T14:23:28.287Z,1.70
2018-03-14T14:25:55.846Z,1.77
2018-03-14T14:28:23.371Z,1.70
2018-03-14T14:30:51.686Z,1.57
2018-03-14T14:33:19.229Z,1.97
2018-03-14T14:35:47.547Z,1.70
2018-03-14T14:38:15.070Z,2.00
2018-03-14T14:40:43.388Z,2.03
2018-03-14T14:43:10.910Z,2.20
2018-03-14T14:45:38.439Z,1.80
2018-03-14T14:48:06.024Z,1.70
2018-03-14T14:50:34.303Z,2.13
2018-03-14T14:53:03.815Z,1.57
2018-03-14T14:55:31.347Z,1.20
2018-03-14T14:57:58.899Z,1.30
2018-03-14T15:00:27.214Z,2.53
2018-03-14T15:02:54.763Z,1.90
2018-03-14T15:05:23.254Z,1.60
2018-03-14T15:07:50.774Z,1.40
2018-03-14T15:10:21.034Z,1.70
2018-03-14T15:12:48.562Z,1.57
2018-03-14T15:15:16.924Z,1.43
2018-03-14T15:17:44.434Z,1.77
2018-03-14T15:20:12.061Z,1.63
2018-03-14T15:22:39.526Z,3.00
2018-03-14T15:25:09.030Z,2.80
2018-03-14T15:27:37.328Z,1.73
2018-03-14T15:30:05.744Z,1.95
2018-03-14T15:32:33.302Z,1.40
2018-03-14T15:35:00.822Z,1.30
2018-03-14T15:37:28.367Z,1.20
2018-03-14T15:39:55.894Z,1.50
2018-03-14T15:42:23.451Z,1.77
2018-03-14T15:44:50.977Z,1.20
2018-03-14T15:47:20.486Z,1.40
2018-03-14T15:49:48.009Z,1.67
2018-03-14T15:52:16.414Z,1.50
2018-03-14T15:54:43.991Z,1.60
2018-03-14T15:57:11.537Z,2.83
2018-03-14T15:59:39.092Z,1.43
2018-03-14T16:02:06.622Z,1.33
2018-03-14T16:04:34.935Z,1.67
2018-03-14T16:07:02.464Z,1.60
2018-03-14T16:09:31.009Z,1.30
2018-03-14T16:12:02.550Z,1.40
2018-03-14T16:14:34.570Z,1.30
2018-03-14T16:17:02.129Z,1.60
2018-03-14T16:19:29.650Z,1.80
2018-03-14T16:21:57.196Z,1.20
2018-03-14T16:24:24.921Z,1.60
2018-03-14T16:26:52.473Z,1.70
2018-03-14T16:29:19.985Z,1.77
2018-03-14T16:31:47.554Z,1.83
2018-03-14T16:34:15.088Z,1.40
2018-03-14T16:36:42.630Z,1.63
2018-03-14T16:39:10.146Z,1.70
2018-03-14T16:41:37.677Z,2.20
2018-03-14T16:44:05.235Z,1.57
2018-03-14T16:46:32.762Z,1.77
2018-03-14T16:49:00.322Z,1.77
2018-03-14T16:51:27.849Z,1.53
2018-03-14T16:53:55.431Z,1.80
2018-03-14T16:56:22.955Z,1.87
2018-03-14T16:58:51.272Z,1.90
2018-03-14T17:01:18.793Z,2.13
2018-03-14T17:03:46.318Z,1.90
2018-03-14T17:06:13.866Z,2.60
2018-03-14T17:08:41.410Z,1.90
2018-03-14T17:11:08.963Z,1.80
2018-03-14T17:13:36.487Z,2.00
2018-03-14T17:16:05.043Z,2.20
2018-03-14T17:18:33.539Z,2.13
2018-03-14T17:21:01.111Z,2.10
2018-03-14T17:23:28.634Z,2.13
2018-03-14T17:25:56.159Z,2.37
2018-03-14T17:28:23.738Z,2.50
2018-03-14T17:30:51.263Z,2.80
2018-03-14T17:33:18.800Z,2.57
2018-03-14T17:35:47.090Z,2.53
2018-03-14T17:38:14.626Z,2.60
2018-03-14T17:40:42.162Z,3.30
2018-03-14T17:43:09.730Z,3.30
2018-03-14T17:45:41.252Z,2.73
2018-03-14T17:48:16.513Z,2.93
2018-03-14T17:50:45.011Z,2.60
2018-03-14T17:53:12.555Z,2.77
2018-03-14T17:55:40.078Z,2.80
2018-03-14T17:58:08.557Z,2.80
2018-03-14T18:00:36.118Z,2.80
2018-03-14T18:03:03.641Z,4.00
2018-03-14T18:05:31.964Z,3.80
2018-03-14T18:08:00.435Z,3.50
2018-03-14T18:10:27.994Z,4.27
2018-03-14T18:12:55.514Z,3.30
2018-03-14T18:15:23.799Z,3.33
2018-03-14T18:17:52.227Z,2.60
2018-03-14T18:20:19.758Z,3.17
2018-03-14T18:22:47.315Z,3.57
2018-03-14T18:25:14.834Z,3.43
2018-03-14T18:27:42.387Z,4.20
2018-03-14T18:30:09.908Z,4.97
2018-03-14T18:32:37.450Z,4.20
2018-03-14T18:35:04.967Z,9.30
2018-03-14T18:37:32.511Z,6.20
2018-03-14T18:40:00.082Z,3.87
2018-03-14T18:42:27.607Z,3.53
2018-03-14T18:44:55.157Z,3.20
2018-03-14T18:47:22.684Z,4.70
2018-03-14T18:49:50.231Z,4.80
2018-03-14T18:52:19.493Z,4.50
2018-03-14T18:54:47.013Z,3.10
2018-03-14T18:57:14.671Z,3.10
2018-03-14T18:59:42.206Z,3.40
2018-03-14T19:02:10.566Z,3.73
2018-03-14T19:04:39.092Z,6.70
2018-03-14T19:07:06.687Z,4.83
2018-03-14T19:09:34.536Z,4.00
2018-03-14T19:12:02.434Z,3.30
2018-03-14T19:14:30.524Z,3.10
2018-03-14T19:16:58.444Z,3.13
2018-03-14T19:19:26.003Z,3.13
2018-03-14T19:21:53.547Z,4.13
2018-03-14T19:24:21.662Z,4.03
2018-03-14T19:26:49.201Z,25.53
2018-03-14T19:29:16.864Z,9.73
2018-03-14T19:31:44.386Z,2.93
2018-03-14T19:34:11.926Z,3.30
2018-03-14T19:36:41.977Z,2.90
2018-03-14T19:39:09.494Z,2.40
2018-03-14T19:41:37.807Z,2.80
2018-03-14T19:44:05.331Z,3.23
2018-03-14T19:46:32.886Z,3.10
2018-03-14T19:49:00.415Z,2.80
2018-03-14T19:51:27.959Z,3.40
2018-03-14T19:53:55.487Z,7.07
2018-03-14T19:56:23.039Z,3.90
2018-03-14T19:58:50.566Z,3.80
2018-03-14T20:01:18.107Z,8.10
2018-03-14T20:03:46.614Z,3.40
2018-03-14T20:06:14.130Z,6.73
2018-03-14T20:08:41.676Z,3.83
2018-03-14T20:11:09.206Z,3.50
2018-03-14T20:13:36.725Z,3.20
2018-03-14T20:16:04.275Z,3.70
2018-03-14T20:18:31.785Z,3.67
2018-03-14T20:21:00.115Z,3.20
2018-03-14T20:23:27.648Z,3.83
2018-03-14T20:25:55.203Z,3.47
2018-03-14T20:28:22.718Z,3.40
2018-03-14T20:30:50.229Z,3.00
2018-03-14T20:33:17.833Z,3.10
2018-03-14T20:35:45.664Z,3.40
2018-03-14T20:38:13.451Z,3.63
2018-03-14T20:40:41.824Z,3.50
2018-03-14T20:43:09.775Z,3.43
2018-03-14T20:45:37.290Z,4.17
2018-03-14T20:48:04.823Z,4.30
2018-03-14T20:50:33.195Z,3.80
2018-03-14T20:53:00.715Z,3.70
2018-03-14T20:55:28.266Z,3.60
2018-03-14T20:57:55.813Z,3.17
2018-03-14T21:00:23.373Z,3.83
2018-03-14T21:02:50.963Z,3.50
2018-03-14T21:05:18.692Z,3.90
2018-03-14T21:07:46.517Z,3.47
2018-03-14T21:10:14.049Z,7.57
2018-03-14T21:12:41.607Z,9.37
2018-03-14T21:15:09.136Z,3.40
2018-03-14T21:17:36.694Z,4.07
2018-03-14T21:20:04.213Z,3.80
2018-03-14T21:22:31.732Z,4.60
2018-03-14T21:24:59.292Z,3.13
2018-03-14T21:27:26.820Z,5.63
2018-03-14T21:29:54.359Z,3.30
2018-03-14T21:32:21.890Z,9.63
2018-03-14T21:34:49.438Z,3.87
2018-03-14T21:37:16.961Z,8.70
2018-03-14T21:39:46.462Z,5.50
2018-03-14T21:42:13.986Z,4.80
2018-03-14T21:44:41.504Z,3.30
2018-03-14T21:47:10.015Z,4.00
2018-03-14T21:49:37.720Z,4.37
2018-03-14T21:52:05.266Z,4.50
2018-03-14T21:54:33.165Z,7.70
2018-03-14T21:57:12.523Z,4.63
2018-03-14T21:59:40.046Z,6.00
2018-03-14T22:02:08.652Z,18.30
2018-03-14T22:04:36.211Z,9.43
2018-03-14T22:07:03.762Z,6.73
2018-03-14T22:09:31.412Z,5.90
2018-03-14T22:11:59.276Z,9.63
2018-03-14T22:14:26.806Z,9.07
2018-03-14T22:16:54.338Z,4.47
2018-03-14T22:19:21.877Z,4.43
2018-03-14T22:21:49.658Z,12.13
2018-03-14T22:24:17.186Z,4.67
2018-03-14T22:26:44.762Z,6.37
2018-03-14T22:29:12.341Z,4.70
2018-03-14T22:31:39.879Z,3.50
2018-03-14T22:34:07.402Z,13.13
2018-03-14T22:36:34.964Z,12.83
2018-03-14T22:39:02.486Z,4.50
2018-03-14T22:41:30.014Z,4.93
2018-03-14T22:43:57.555Z,13.53
2018-03-14T22:46:25.083Z,6.80
2018-03-14T22:48:52.634Z,13.07
2018-03-14T22:51:20.166Z,19.40
2018-03-14T22:53:47.722Z,6.70
2018-03-14T22:56:16.204Z,6.80
2018-03-14T22:58:43.732Z,8.70
2018-03-14T23:01:11.289Z,6.63
2018-03-14T23:03:39.774Z,6.30
2018-03-14T23:06:07.314Z,6.80
2018-03-14T23:08:34.837Z,6.13
2018-03-14T23:11:02.391Z,16.83
2018-03-14T23:13:29.935Z,10.10
2018-03-14T23:15:57.965Z,7.17
2018-03-14T23:18:27.502Z,17.10
2018-03-14T23:20:56.798Z,4.43
2018-03-14T23:23:25.114Z,21.27
2018-03-14T23:25:55.398Z,19.60
2018-03-14T23:28:25.365Z,6.80
2018-03-14T23:30:54.780Z,4.40
2018-03-14T23:33:23.204Z,4.80
2018-03-14T23:35:50.873Z,4.03
2018-03-14T23:38:19.159Z,9.60
2018-03-14T23:40:49.692Z,16.13
2018-03-14T23:43:17.852Z,5.30
2018-03-14T23:45:46.312Z,20.62
2018-03-14T23:48:13.929Z,4.10
2018-03-14T23:50:42.425Z,7.70
2018-03-14T23:53:11.054Z,5.63
2018-03-14T23:55:38.993Z,3.83
2018-03-14T23:58:06.538Z,10.67
